Terminal Aerodrome Forecast
Issued by NWS Amarillo, TX

Home | Current Version | Previous Version | Text Only | Print | Product List | Glossary On
Versions: 1 2 3 4 5 6 7 8 9 10 11 12
000
FTUS44 KAMA 110500
TAFDHT
TAF
KDHT 110520Z 1106/1206 18010KT P6SM SKC
     FM111400 19018G27KT P6SM SKC
     FM120100 18010KT P6SM SKC=

USA.gov is the U.S. government's official web portal to all federal, state and local government web resources and services.